Time;durP1;ratioP1;P1;durP2;ratioP2;P2;SDS_P1;SDS_P2;PMS_P1;PMS_P2;Temp;Humidity;BMP_temperature;BMP_pressure;BME280_temperature;BME280_humidity;BME280_pressure;Samples;Min_cycle;Max_cycle;Signal;HPM_P1;HPM_P2
2022/12/19 00:01:21;;;;;;;2.77;1.07;;;;;;;;;;5050687;28;20087;-67
2022/12/19 00:03:48;;;;;;;2.22;1.15;;;;;;;;;;5050718;28;20816;-66
2022/12/19 00:06:15;;;;;;;6.50;1.27;;;;;;;;;;5050760;28;20045;-67
2022/12/19 00:08:43;;;;;;;2.78;1.05;;;;;;;;;;5049457;28;20080;-66
2022/12/19 00:11:10;;;;;;;4.28;1.35;;;;;;;;;;5050637;28;20491;-67
2022/12/19 00:13:37;;;;;;;2.87;1.03;;;;;;;;;;5050583;28;20511;-66
2022/12/19 00:16:07;;;;;;;3.75;1.25;;;;;;;;;;5050527;28;20099;-66
2022/12/19 00:18:34;;;;;;;8.25;1.40;;;;;;;;;;5050582;28;20087;-66
2022/12/19 00:21:02;;;;;;;6.15;1.45;;;;;;;;;;5050711;28;20048;-66
2022/12/19 00:23:30;;;;;;;8.25;2.40;;;;;;;;;;5050777;28;20049;-66
2022/12/19 00:25:56;;;;;;;;;;;;;;;;;;5051110;28;20060;-66
2022/12/19 00:28:22;;;;;;;7.70;1.50;;;;;;;;;;5012498;28;1114868;-66
2022/12/19 00:30:49;;;;;;;6.78;1.63;;;;;;;;;;5051332;28;20053;-66
2022/12/19 00:33:18;;;;;;;7.93;1.88;;;;;;;;;;5051160;28;20457;-66
2022/12/19 00:35:44;;;;;;;7.35;1.75;;;;;;;;;;5051171;28;20481;-66
2022/12/19 00:38:11;;;;;;;7.88;1.48;;;;;;;;;;5051644;28;20055;-66
2022/12/19 00:40:37;;;;;;;4.03;1.40;;;;;;;;;;5051429;28;20045;-66
2022/12/19 00:43:03;;;;;;;4.85;0.80;;;;;;;;;;5051274;28;20064;-66
2022/12/19 00:45:30;;;;;;;5.50;1.50;;;;;;;;;;5051254;28;20056;-66
2022/12/19 00:47:56;;;;;;;7.30;1.80;;;;;;;;;;5051217;28;20134;-66
2022/12/19 00:50:23;;;;;;;4.85;1.42;;;;;;;;;;5051278;28;20056;-66
2022/12/19 00:52:49;;;;;;;6.35;1.33;;;;;;;;;;5043580;28;20049;-66
2022/12/19 00:55:15;;;;;;;9.00;2.40;;;;;;;;;;5044944;28;20496;-66
2022/12/19 00:57:45;;;;;;;9.85;2.30;;;;;;;;;;5051055;28;20052;-66
2022/12/19 01:00:12;;;;;;;11.25;2.95;;;;;;;;;;5051003;28;20045;-66
2022/12/19 01:02:38;;;;;;;10.45;2.60;;;;;;;;;;5050876;28;20498;-66
2022/12/19 01:05:05;;;;;;;13.23;2.75;;;;;;;;;;5050921;28;20057;-66
2022/12/19 01:07:31;;;;;;;11.25;2.22;;;;;;;;;;5048281;28;20056;-67
2022/12/19 01:09:57;;;;;;;6.80;1.30;;;;;;;;;;5040114;28;20049;-66
2022/12/19 01:15:09;;;;;;;7.22;1.60;;;;;;;;;;5050842;28;20045;-66
2022/12/19 01:17:35;;;;;;;11.48;1.92;;;;;;;;;;5050829;28;20055;-66
2022/12/19 01:20:09;;;;;;;9.00;2.00;;;;;;;;;;5053149;28;20384;-66
2022/12/19 01:22:35;;;;;;;12.25;2.22;;;;;;;;;;5054357;28;20049;-66
2022/12/19 01:25:02;;;;;;;9.15;2.72;;;;;;;;;;5054484;28;20051;-67
2022/12/19 01:27:28;;;;;;;9.98;2.17;;;;;;;;;;5054183;28;20057;-66
2022/12/19 01:29:55;;;;;;;12.70;2.30;;;;;;;;;;5054468;28;20067;-67
2022/12/19 01:32:22;;;;;;;11.75;2.20;;;;;;;;;;5054577;28;20424;-67
2022/12/19 01:34:48;;;;;;;8.82;2.03;;;;;;;;;;5054046;28;20051;-67
2022/12/19 01:37:18;;;;;;;10.82;2.33;;;;;;;;;;5054299;28;20045;-66
2022/12/19 01:39:45;;;;;;;7.28;2.13;;;;;;;;;;5054111;28;20128;-67
2022/12/19 01:42:16;;;;;;;7.87;2.20;;;;;;;;;;5054026;28;20091;-66
2022/12/19 01:45:01;;;;;;;7.90;1.98;;;;;;;;;;5053937;28;20052;-66
2022/12/19 01:47:28;;;;;;;7.70;1.98;;;;;;;;;;5054202;28;20436;-67
2022/12/19 01:49:55;;;;;;;6.10;1.75;;;;;;;;;;5053844;28;20048;-66
2022/12/19 01:52:21;;;;;;;10.67;2.53;;;;;;;;;;5054158;28;20048;-66
2022/12/19 01:54:49;;;;;;;9.38;1.85;;;;;;;;;;5054011;28;20056;-66
2022/12/19 01:57:16;;;;;;;9.77;2.17;;;;;;;;;;5054019;28;20059;-66
2022/12/19 01:59:44;;;;;;;7.63;1.73;;;;;;;;;;5053713;28;20468;-66
2022/12/19 02:02:24;;;;;;;9.57;2.13;;;;;;;;;;5053769;28;20045;-66
2022/12/19 02:04:50;;;;;;;8.63;2.00;;;;;;;;;;5053667;28;20052;-66
2022/12/19 02:07:18;;;;;;;12.15;2.60;;;;;;;;;;5053824;28;20147;-67
2022/12/19 02:09:45;;;;;;;;;;;;;;;;;;5054368;28;20052;-66
2022/12/19 02:12:12;;;;;;;14.02;2.75;;;;;;;;;;5053809;28;19928;-66
2022/12/19 02:14:39;;;;;;;11.95;2.97;;;;;;;;;;5053528;28;20045;-66
2022/12/19 02:17:11;;;;;;;13.13;3.10;;;;;;;;;;5053767;28;20400;-66
2022/12/19 02:22:59;;;;;;;11.57;3.17;;;;;;;;;;5053325;28;20024;-66
2022/12/19 02:25:48;;;;;;;19.60;3.97;;;;;;;;;;5053381;28;20048;-66
2022/12/19 02:28:31;;;;;;;22.13;4.63;;;;;;;;;;5052976;28;20516;-66
2022/12/19 02:31:12;;;;;;;17.77;4.72;;;;;;;;;;5052435;28;20135;-66
2022/12/19 02:33:54;;;;;;;20.73;4.80;;;;;;;;;;5053102;28;20404;-66
2022/12/19 02:36:26;;;;;;;26.55;5.88;;;;;;;;;;5053092;28;20045;-66
2022/12/19 02:39:03;;;;;;;25.55;6.78;;;;;;;;;;5053304;28;20412;-66
2022/12/19 02:41:41;;;;;;;29.38;5.60;;;;;;;;;;5053286;28;20400;-66
2022/12/19 02:44:12;;;;;;;28.05;6.38;;;;;;;;;;5052985;28;20045;-66
2022/12/19 02:46:40;;;;;;;35.55;6.68;;;;;;;;;;5053160;28;20080;-66
2022/12/19 02:49:09;;;;;;;30.90;6.03;;;;;;;;;;5052912;28;20069;-66
2022/12/19 02:51:36;;;;;;;30.00;6.35;;;;;;;;;;5052992;28;20055;-66
2022/12/19 02:54:02;;;;;;;27.05;6.30;;;;;;;;;;5052793;28;20128;-66
2022/12/19 02:56:48;;;;;;;29.08;5.97;;;;;;;;;;5052945;28;20051;-66
2022/12/19 02:59:33;;;;;;;32.97;6.53;;;;;;;;;;5052558;28;20436;-66
2022/12/19 03:01:59;;;;;;;30.10;5.35;;;;;;;;;;5052739;28;20052;-66
2022/12/19 03:04:38;;;;;;;21.63;4.82;;;;;;;;;;5052651;28;20051;-66
2022/12/19 03:07:37;;;;;;;17.55;3.92;;;;;;;;;;5052468;28;20076;-66
2022/12/19 03:10:23;;;;;;;19.83;3.92;;;;;;;;;;5042191;28;20049;-67
2022/12/19 03:13:01;;;;;;;17.93;3.20;;;;;;;;;;5044228;28;20049;-66
2022/12/19 03:15:28;;;;;;;14.13;2.80;;;;;;;;;;5052368;28;20048;-66
2022/12/19 03:17:56;;;;;;;10.95;2.42;;;;;;;;;;5052152;28;20424;-66
2022/12/19 03:20:29;;;;;;;9.40;2.17;;;;;;;;;;5052198;28;20045;-66
2022/12/19 03:22:55;;;;;;;8.30;1.80;;;;;;;;;;5052386;28;20053;-66
2022/12/19 03:25:23;;;;;;;8.20;1.85;;;;;;;;;;5052349;28;20056;-66
2022/12/19 03:27:50;;;;;;;9.07;1.65;;;;;;;;;;5051844;28;20071;-66
2022/12/19 03:30:17;;;;;;;;;;;;;;;;;;5052810;28;20055;-66
2022/12/19 03:32:45;;;;;;;8.20;1.60;;;;;;;;;;5052116;28;19944;-66
2022/12/19 03:35:12;;;;;;;7.68;1.67;;;;;;;;;;5052089;28;20051;-66
2022/12/19 03:37:39;;;;;;;10.73;2.38;;;;;;;;;;5052107;28;20068;-66
2022/12/19 03:40:08;;;;;;;5.45;1.40;;;;;;;;;;5052099;28;20051;-66
2022/12/19 03:45:25;;;;;;;9.02;1.90;;;;;;;;;;5051990;28;20057;-66
2022/12/19 03:47:56;;;;;;;8.10;2.28;;;;;;;;;;5052302;28;20055;-67
2022/12/19 03:50:23;;;;;;;9.13;2.00;;;;;;;;;;5052090;28;20086;-66
2022/12/19 03:52:50;;;;;;;;;;;;;;;;;;5052269;28;20405;-67
2022/12/19 03:55:28;;;;;;;8.15;2.35;;;;;;;;;;5051672;28;20291;-67
2022/12/19 03:58:00;;;;;;;10.68;2.85;;;;;;;;;;5051642;28;20055;-67
2022/12/19 04:00:28;;;;;;;10.55;2.42;;;;;;;;;;5051741;28;20045;-67
2022/12/19 04:02:55;;;;;;;;;;;;;;;;;;5052327;28;20051;-67
2022/12/19 04:05:23;;;;;;;9.25;2.38;;;;;;;;;;5051475;28;19921;-67
2022/12/19 04:07:51;;;;;;;9.52;2.20;;;;;;;;;;5051528;28;20150;-67
2022/12/19 04:10:19;;;;;;;8.38;2.40;;;;;;;;;;5051758;28;20132;-67
2022/12/19 04:13:00;;;;;;;7.25;2.67;;;;;;;;;;5051414;28;20048;-67
2022/12/19 04:15:33;;;;;;;9.70;2.85;;;;;;;;;;5051522;28;20481;-67
2022/12/19 04:18:03;;;;;;;4.85;2.08;;;;;;;;;;5051683;28;20084;-67
2022/12/19 04:20:30;;;;;;;10.73;2.70;;;;;;;;;;5051463;28;20044;-66
2022/12/19 04:22:58;;;;;;;8.63;1.92;;;;;;;;;;5051360;28;20049;-67
2022/12/19 04:25:26;;;;;;;7.38;2.10;;;;;;;;;;5051564;28;20132;-67
2022/12/19 04:27:57;;;;;;;5.72;1.50;;;;;;;;;;5051330;28;20095;-67
2022/12/19 04:30:25;;;;;;;7.03;2.00;;;;;;;;;;5051656;28;20061;-67
2022/12/19 04:32:51;;;;;;;6.05;1.58;;;;;;;;;;5051235;28;20053;-67
2022/12/19 04:35:17;;;;;;;7.57;1.63;;;;;;;;;;5051225;28;20045;-67
2022/12/19 04:37:44;;;;;;;5.78;1.50;;;;;;;;;;5051564;28;20045;-66
2022/12/19 04:40:10;;;;;;;6.50;1.83;;;;;;;;;;5051373;28;20453;-67
2022/12/19 04:42:37;;;;;;;7.43;2.10;;;;;;;;;;5051402;28;20053;-67
2022/12/19 04:45:04;;;;;;;8.43;1.83;;;;;;;;;;5051420;28;20472;-66
2022/12/19 04:47:31;;;;;;;6.63;2.13;;;;;;;;;;5051170;28;20052;-66
2022/12/19 04:49:57;;;;;;;8.25;1.70;;;;;;;;;;5051341;28;20053;-67
2022/12/19 04:52:24;;;;;;;6.40;1.73;;;;;;;;;;5051319;28;20041;-66
2022/12/19 04:54:50;;;;;;;6.75;2.00;;;;;;;;;;5052686;28;20045;-66
2022/12/19 04:57:16;;;;;;;8.73;2.20;;;;;;;;;;5053462;28;20045;-67
2022/12/19 04:59:43;;;;;;;6.97;2.20;;;;;;;;;;5054932;28;20049;-66
2022/12/19 05:02:09;;;;;;;11.07;2.50;;;;;;;;;;5055008;28;20048;-66
2022/12/19 05:04:36;;;;;;;11.30;2.45;;;;;;;;;;5054656;28;20064;-66
2022/12/19 05:07:02;;;;;;;13.75;2.70;;;;;;;;;;5054932;28;20049;-66
2022/12/19 05:09:29;;;;;;;13.85;3.42;;;;;;;;;;5054688;28;20481;-66
2022/12/19 05:11:55;;;;;;;14.88;3.30;;;;;;;;;;5054702;28;20063;-66
2022/12/19 05:14:21;;;;;;;14.52;3.85;;;;;;;;;;5054695;28;20055;-66
2022/12/19 05:16:48;;;;;;;11.27;3.70;;;;;;;;;;5054609;28;20049;-66
2022/12/19 05:19:14;;;;;;;12.63;3.63;;;;;;;;;;5054411;28;20047;-67
2022/12/19 05:21:41;;;;;;;14.02;3.88;;;;;;;;;;5054826;28;20474;-66
2022/12/19 05:24:07;;;;;;;13.30;3.47;;;;;;;;;;5054620;28;20140;-66
2022/12/19 05:26:33;;;;;;;19.02;4.47;;;;;;;;;;5054320;28;20045;-66
2022/12/19 05:29:00;;;;;;;12.75;3.28;;;;;;;;;;5054641;28;20049;-66
2022/12/19 05:31:26;;;;;;;13.75;3.60;;;;;;;;;;5054182;28;20052;-66
2022/12/19 05:33:53;;;;;;;16.63;3.83;;;;;;;;;;5054564;28;20052;-66
2022/12/19 05:36:19;;;;;;;13.00;3.33;;;;;;;;;;5054233;28;20036;-66
2022/12/19 05:38:46;;;;;;;15.45;4.15;;;;;;;;;;5054291;28;20057;-66
2022/12/19 05:41:13;;;;;;;13.18;3.53;;;;;;;;;;5054342;28;20059;-66
2022/12/19 05:43:40;;;;;;;17.40;3.42;;;;;;;;;;5054169;28;20053;-66
2022/12/19 05:46:06;;;;;;;13.55;4.40;;;;;;;;;;5053972;28;20056;-66
2022/12/19 05:48:34;;;;;;;16.50;3.63;;;;;;;;;;5053958;28;20488;-66
2022/12/19 05:51:00;;;;;;;17.48;3.90;;;;;;;;;;5054285;28;20071;-66
2022/12/19 05:53:27;;;;;;;18.80;3.95;;;;;;;;;;5053948;28;20041;-66
2022/12/19 05:56:10;;;;;;;15.15;3.67;;;;;;;;;;5053744;28;20045;-66
2022/12/19 05:58:37;;;;;;;13.52;3.65;;;;;;;;;;5053755;28;20068;-66
2022/12/19 06:01:11;;;;;;;13.65;3.22;;;;;;;;;;5053972;28;20048;-66
2022/12/19 06:03:37;;;;;;;16.58;4.38;;;;;;;;;;5053872;28;20053;-66
2022/12/19 06:06:05;;;;;;;14.60;3.75;;;;;;;;;;5053835;28;20075;-66
2022/12/19 06:08:31;;;;;;;;;;;;;;;;;;5053985;28;20057;-66
2022/12/19 06:11:02;;;;;;;14.98;3.05;;;;;;;;;;5053482;28;19925;-66
2022/12/19 06:13:29;;;;;;;10.20;2.65;;;;;;;;;;5053816;28;20049;-66
2022/12/19 06:15:58;;;;;;;13.30;3.25;;;;;;;;;;5053453;28;20493;-66
2022/12/19 06:18:25;;;;;;;15.13;3.00;;;;;;;;;;5053442;28;20140;-66
2022/12/19 06:21:11;;;;;;;11.02;2.50;;;;;;;;;;5053311;28;20044;-66
2022/12/19 06:23:38;;;;;;;10.18;2.72;;;;;;;;;;5053583;28;20049;-66
2022/12/19 06:26:05;;;;;;;9.77;3.60;;;;;;;;;;5053380;28;20053;-66
2022/12/19 06:28:31;;;;;;;14.55;3.03;;;;;;;;;;5053163;28;20132;-66
2022/12/19 06:30:59;;;;;;;8.52;3.30;;;;;;;;;;5053418;28;20049;-66
2022/12/19 06:33:25;;;;;;;13.00;3.28;;;;;;;;;;5053288;28;20045;-66
2022/12/19 06:35:58;;;;;;;12.32;2.80;;;;;;;;;;5052993;28;20136;-66
2022/12/19 06:38:26;;;;;;;11.18;2.63;;;;;;;;;;5053338;28;20053;-66
2022/12/19 06:43:37;;;;;;;13.15;3.20;;;;;;;;;;5052988;28;20045;-66
2022/12/19 06:46:04;;;;;;;10.73;3.20;;;;;;;;;;5052908;28;20055;-66
2022/12/19 06:48:30;;;;;;;20.40;4.53;;;;;;;;;;5052872;28;20079;-66
2022/12/19 06:50:57;;;;;;;11.15;3.78;;;;;;;;;;5052954;28;20049;-66
2022/12/19 06:53:23;;;;;;;14.52;3.53;;;;;;;;;;5053158;28;20053;-66
2022/12/19 06:55:52;;;;;;;16.60;3.85;;;;;;;;;;5052988;28;20045;-66
2022/12/19 06:58:18;;;;;;;14.07;3.67;;;;;;;;;;5051691;28;20048;-66
2022/12/19 07:00:49;;;;;;;12.52;3.20;;;;;;;;;;5052653;28;20132;-65
2022/12/19 07:03:21;;;;;;;13.30;3.65;;;;;;;;;;5052473;28;20057;-66
2022/12/19 07:05:48;;;;;;;13.35;3.30;;;;;;;;;;5052732;28;20052;-66
2022/12/19 07:08:14;;;;;;;14.75;4.10;;;;;;;;;;5052649;28;20060;-66
2022/12/19 07:10:40;;;;;;;18.08;3.88;;;;;;;;;;5052626;28;20041;-66
2022/12/19 07:13:07;;;;;;;18.02;3.70;;;;;;;;;;5052457;28;20049;-66
2022/12/19 07:15:33;;;;;;;14.05;3.42;;;;;;;;;;5052155;28;20055;-66
2022/12/19 07:18:01;;;;;;;18.13;3.90;;;;;;;;;;5051799;28;20473;-66
2022/12/19 07:20:27;;;;;;;14.25;3.55;;;;;;;;;;5052451;28;20049;-66
2022/12/19 07:22:54;;;;;;;14.75;3.53;;;;;;;;;;5052376;28;20051;-67
2022/12/19 07:25:20;;;;;;;13.73;3.65;;;;;;;;;;5052171;28;20057;-66
2022/12/19 07:27:47;;;;;;;22.73;4.22;;;;;;;;;;5051874;28;20056;-67
2022/12/19 07:30:13;;;;;;;12.73;3.70;;;;;;;;;;5052566;28;20090;-66
2022/12/19 07:32:39;;;;;;;16.73;3.88;;;;;;;;;;5052215;28;20056;-66
2022/12/19 07:35:06;;;;;;;19.33;3.97;;;;;;;;;;5052079;28;20053;-66
2022/12/19 07:37:32;;;;;;;11.40;3.25;;;;;;;;;;5052172;28;20049;-67
2022/12/19 07:39:59;;;;;;;16.05;3.35;;;;;;;;;;5052002;28;20043;-66
2022/12/19 07:42:25;;;;;;;14.30;3.25;;;;;;;;;;5051889;28;20044;-66
2022/12/19 07:44:57;;;;;;;12.73;3.70;;;;;;;;;;5051802;28;20045;-66
2022/12/19 07:47:26;;;;;;;15.15;3.58;;;;;;;;;;5051819;28;20579;-67
2022/12/19 07:49:52;;;;;;;10.35;3.22;;;;;;;;;;5051700;28;20049;-67
2022/12/19 07:52:19;;;;;;;15.98;3.25;;;;;;;;;;5031342;28;20124;-67
2022/12/19 07:54:45;;;;;;;10.55;2.72;;;;;;;;;;5031249;28;20050;-67
2022/12/19 07:57:11;;;;;;;19.42;3.97;;;;;;;;;;5030985;28;20172;-66
2022/12/19 07:59:38;;;;;;;11.35;3.25;;;;;;;;;;5031150;28;20049;-66
2022/12/19 08:02:05;;;;;;;11.10;3.83;;;;;;;;;;5029453;28;20049;-67
2022/12/19 08:04:33;;;;;;;19.75;4.30;;;;;;;;;;5048637;28;20073;-67
2022/12/19 08:06:59;;;;;;;20.42;4.65;;;;;;;;;;5032003;28;20408;-66
2022/12/19 08:09:27;;;;;;;20.45;5.22;;;;;;;;;;5048383;28;20048;-67
2022/12/19 08:11:54;;;;;;;19.75;5.20;;;;;;;;;;5036264;28;20137;-67
2022/12/19 08:14:20;;;;;;;20.70;5.25;;;;;;;;;;5039661;28;20064;-67
2022/12/19 08:16:47;;;;;;;17.40;4.15;;;;;;;;;;5051022;28;20075;-67
2022/12/19 08:19:33;;;;;;;16.63;4.18;;;;;;;;;;5032125;28;20053;-67
2022/12/19 08:21:59;;;;;;;18.08;4.18;;;;;;;;;;5030579;28;20048;-66
2022/12/19 08:24:26;;;;;;;19.42;4.38;;;;;;;;;;5030389;28;20055;-67
2022/12/19 08:26:52;;;;;;;13.90;3.60;;;;;;;;;;5030649;28;20061;-66
2022/12/19 08:29:19;;;;;;;11.95;3.17;;;;;;;;;;5050639;28;20173;-67
2022/12/19 08:31:45;;;;;;;12.18;2.55;;;;;;;;;;5054886;28;20049;-67
2022/12/19 08:34:11;;;;;;;10.63;2.85;;;;;;;;;;5054668;28;20060;-67
2022/12/19 08:36:38;;;;;;;11.90;3.45;;;;;;;;;;5054720;28;20515;-67
2022/12/19 08:39:05;;;;;;;10.95;3.20;;;;;;;;;;5054698;28;20052;-68
2022/12/19 08:41:31;;;;;;;11.63;3.40;;;;;;;;;;5054711;28;20049;-68
2022/12/19 08:43:57;;;;;;;13.32;3.15;;;;;;;;;;5054732;28;20045;-67
2022/12/19 08:46:25;;;;;;;11.88;3.28;;;;;;;;;;5054885;28;20068;-67
2022/12/19 08:48:51;;;;;;;11.52;2.85;;;;;;;;;;5038697;28;20050;-67
2022/12/19 08:51:18;;;;;;;5.50;2.13;;;;;;;;;;5034076;28;20497;-67
2022/12/19 08:53:45;;;;;;;7.30;2.22;;;;;;;;;;5037115;28;20056;-66
2022/12/19 08:56:15;;;;;;;7.35;2.17;;;;;;;;;;5052343;28;20132;-67
2022/12/19 08:58:42;;;;;;;10.07;2.38;;;;;;;;;;5034291;28;20041;-66
2022/12/19 09:01:12;;;;;;;5.25;1.60;;;;;;;;;;5032085;28;20551;-67
2022/12/19 09:03:39;;;;;;;6.43;1.77;;;;;;;;;;5041862;28;20056;-66
2022/12/19 09:06:25;;;;;;;9.70;1.93;;;;;;;;;;5053618;28;20053;-66
2022/12/19 09:08:52;;;;;;;5.78;1.55;;;;;;;;;;5044823;28;20060;-66
2022/12/19 09:11:25;;;;;;;6.65;1.45;;;;;;;;;;5033854;28;20057;-67
2022/12/19 09:13:53;;;;;;;5.47;1.45;;;;;;;;;;5033812;28;20049;-67
2022/12/19 09:16:21;;;;;;;4.28;1.42;;;;;;;;;;5033559;28;20046;-67
2022/12/19 09:18:48;;;;;;;3.67;1.55;;;;;;;;;;5033976;28;20119;-68
2022/12/19 09:21:15;;;;;;;3.45;1.08;;;;;;;;;;5048583;28;20084;-67
2022/12/19 09:23:42;;;;;;;2.55;1.10;;;;;;;;;;5054128;28;20044;-67
2022/12/19 09:26:11;;;;;;;3.90;0.80;;;;;;;;;;5053893;28;20059;-67
2022/12/19 09:28:38;;;;;;;4.30;1.00;;;;;;;;;;5053673;28;20056;-67
2022/12/19 09:31:12;;;;;;;5.35;1.25;;;;;;;;;;5053820;28;20045;-67
2022/12/19 09:33:39;;;;;;;6.82;1.92;;;;;;;;;;5052821;28;20056;-67
2022/12/19 09:36:27;;;;;;;4.63;1.85;;;;;;;;;;5053633;28;20049;-67
2022/12/19 09:38:54;;;;;;;7.45;2.00;;;;;;;;;;5053952;28;20049;-67
2022/12/19 09:41:36;;;;;;;7.55;1.85;;;;;;;;;;5053415;28;20140;-67
2022/12/19 09:44:02;;;;;;;7.75;1.90;;;;;;;;;;5039972;28;20044;-66
2022/12/19 09:46:35;;;;;;;7.78;2.08;;;;;;;;;;5053741;28;20045;-67
2022/12/19 09:49:09;;;;;;;12.75;2.42;;;;;;;;;;5053493;28;20102;-67
2022/12/19 09:51:54;;;;;;;12.15;3.05;;;;;;;;;;5053811;28;20431;-67
2022/12/19 09:54:27;;;;;;;15.13;3.25;;;;;;;;;;5037086;28;20053;-67
2022/12/19 09:56:57;;;;;;;12.20;2.60;;;;;;;;;;5032956;28;20048;-67
2022/12/19 09:59:31;;;;;;;12.07;3.00;;;;;;;;;;5035864;28;20136;-67
2022/12/19 10:02:11;;;;;;;;;;;;;;;;;;5044921;28;20127;-67
2022/12/19 10:04:41;;;;;;;10.80;2.45;;;;;;;;;;5038381;28;19928;-67
2022/12/19 10:07:10;;;;;;;10.63;2.55;;;;;;;;;;5043715;28;20397;-66
2022/12/19 10:09:57;;;;;;;15.15;3.47;;;;;;;;;;5040573;28;20261;-67
2022/12/19 10:12:52;;;;;;;16.33;4.03;;;;;;;;;;5038570;28;20048;-66
2022/12/19 10:15:24;;;;;;;16.73;3.92;;;;;;;;;;5052932;28;20049;-67
2022/12/19 10:17:51;;;;;;;19.65;4.22;;;;;;;;;;5052872;28;20130;-67
2022/12/19 10:20:28;;;;;;;14.48;3.17;;;;;;;;;;5043384;28;20049;-67
2022/12/19 10:23:04;;;;;;;15.68;3.80;;;;;;;;;;5047080;28;20432;-67
2022/12/19 10:25:39;;;;;;;13.80;2.60;;;;;;;;;;5034127;28;20088;-67
2022/12/19 10:28:36;;;;;;;12.20;3.50;;;;;;;;;;5040691;28;20061;-66
2022/12/19 10:31:17;;;;;;;15.32;3.13;;;;;;;;;;5049901;28;20061;-67
2022/12/19 10:33:53;;;;;;;16.30;2.97;;;;;;;;;;5051843;28;20516;-67
2022/12/19 10:36:21;;;;;;;17.88;3.47;;;;;;;;;;5050258;28;20078;-67
2022/12/19 10:39:07;;;;;;;;;;;;;;;;;;5051681;28;20088;-67
2022/12/19 10:41:36;;;;;;;12.90;3.25;;;;;;;;;;5052079;28;19925;-68
2022/12/19 10:44:09;;;;;;;21.00;3.55;;;;;;;;;;5052048;28;20053;-66
2022/12/19 10:46:37;;;;;;;21.30;4.55;;;;;;;;;;5052839;28;20045;-66
2022/12/19 10:49:10;;;;;;;18.98;4.43;;;;;;;;;;5053163;28;20041;-67
2022/12/19 10:51:36;;;;;;;15.55;3.38;;;;;;;;;;5034846;28;20045;-66
2022/12/19 10:54:03;;;;;;;18.13;3.40;;;;;;;;;;5032029;28;20584;-67
2022/12/19 10:56:30;;;;;;;15.75;4.03;;;;;;;;;;5032076;28;20052;-66
2022/12/19 10:59:02;;;;;;;18.05;4.15;;;;;;;;;;5032564;28;20041;-66
2022/12/19 11:01:37;;;;;;;16.70;3.28;;;;;;;;;;5033782;28;20046;-66
2022/12/19 11:04:19;;;;;;;16.63;3.47;;;;;;;;;;5045242;28;20045;-65
2022/12/19 11:06:46;;;;;;;16.48;3.90;;;;;;;;;;5052290;28;20097;-65
2022/12/19 11:09:16;;;;;;;18.75;3.63;;;;;;;;;;5051940;28;20059;-64
2022/12/19 11:11:48;;;;;;;15.68;3.30;;;;;;;;;;5050492;28;20123;-64
2022/12/19 11:14:35;;;;;;;13.93;3.42;;;;;;;;;;5052064;28;20053;-65
2022/12/19 11:17:22;;;;;;;;;;;;;;;;;;5052119;28;20076;-65
2022/12/19 11:20:13;;;;;;;16.15;3.38;;;;;;;;;;5037337;28;19924;-65
2022/12/19 11:22:59;;;;;;;17.65;4.22;;;;;;;;;;5051867;28;20060;-64
2022/12/19 11:25:52;;;;;;;14.83;3.07;;;;;;;;;;5045812;28;20049;-64
2022/12/19 11:28:38;;;;;;;14.77;3.15;;;;;;;;;;5050944;28;20099;-64
2022/12/19 11:31:27;;;;;;;13.90;3.10;;;;;;;;;;5051673;28;20056;-64
2022/12/19 11:34:15;;;;;;;10.30;2.38;;;;;;;;;;5051710;28;20440;-65
2022/12/19 11:37:00;;;;;;;11.93;2.65;;;;;;;;;;5049313;28;20049;-64
2022/12/19 11:39:40;;;;;;;16.75;2.88;;;;;;;;;;5050630;28;20147;-65
2022/12/19 11:42:06;;;;;;;12.48;2.70;;;;;;;;;;5039656;28;20144;-65
2022/12/19 11:44:35;;;;;;;13.40;2.55;;;;;;;;;;5048780;28;20045;-64
2022/12/19 11:47:31;;;;;;;13.80;3.08;;;;;;;;;;5035217;28;20515;-65
2022/12/19 11:50:00;;;;;;;9.05;2.55;;;;;;;;;;5034001;28;20049;-65
2022/12/19 11:52:44;;;;;;;6.88;1.80;;;;;;;;;;5033151;28;20060;-65
2022/12/19 11:55:37;;;;;;;15.88;3.00;;;;;;;;;;5050633;28;20049;-65
2022/12/19 11:58:03;;;;;;;8.18;2.42;;;;;;;;;;5043926;28;20048;-65
2022/12/19 12:00:30;;;;;;;12.88;2.67;;;;;;;;;;5030235;28;20057;-64
2022/12/19 12:03:05;;;;;;;11.00;2.22;;;;;;;;;;5033307;28;20048;-67
2022/12/19 12:05:45;;;;;;;8.05;2.20;;;;;;;;;;5049358;28;20037;-67
2022/12/19 12:08:30;;;;;;;8.95;1.75;;;;;;;;;;5035335;28;20041;-66
2022/12/19 12:11:22;;;;;;;9.57;2.47;;;;;;;;;;5030742;28;20049;-66
2022/12/19 12:14:14;;;;;;;6.28;1.92;;;;;;;;;;5046501;28;20045;-66
2022/12/19 12:17:06;;;;;;;7.70;2.15;;;;;;;;;;5030553;28;20046;-66
2022/12/19 12:20:02;;;;;;;7.40;1.55;;;;;;;;;;5030676;28;20053;-66
2022/12/19 12:22:48;;;;;;;8.52;2.33;;;;;;;;;;5033328;28;20052;-66
2022/12/19 12:25:46;;;;;;;9.38;2.60;;;;;;;;;;5040332;28;20060;-66
2022/12/19 12:28:51;;;;;;;12.75;2.10;;;;;;;;;;5035352;28;20060;-66
2022/12/19 12:31:42;;;;;;;10.07;1.92;;;;;;;;;;5039709;28;20068;-66
2022/12/19 12:34:47;;;;;;;9.77;2.95;;;;;;;;;;5047859;28;20402;-67
2022/12/19 12:37:47;;;;;;;8.88;2.40;;;;;;;;;;5050857;28;20049;-67
2022/12/19 12:40:33;;;;;;;13.88;2.42;;;;;;;;;;5049988;28;20048;-67
2022/12/19 12:43:00;;;;;;;15.15;3.28;;;;;;;;;;5051523;28;20041;-67
2022/12/19 12:45:33;;;;;;;11.30;3.20;;;;;;;;;;5051509;28;20124;-66
2022/12/19 12:48:00;;;;;;;12.10;3.08;;;;;;;;;;5051368;28;20045;-67
2022/12/19 12:50:27;;;;;;;13.20;2.60;;;;;;;;;;5051105;28;20489;-66
2022/12/19 12:52:58;;;;;;;8.00;2.38;;;;;;;;;;5051034;28;20485;-66
2022/12/19 12:55:27;;;;;;;13.95;2.25;;;;;;;;;;5051076;28;20049;-66
2022/12/19 12:57:54;;;;;;;10.93;2.42;;;;;;;;;;5051237;28;20045;-66
2022/12/19 13:00:27;;;;;;;11.65;2.42;;;;;;;;;;5051356;28;20047;-66
2022/12/19 13:03:06;;;;;;;10.23;2.00;;;;;;;;;;5051081;28;20045;-66
2022/12/19 13:05:45;;;;;;;7.53;2.47;;;;;;;;;;5050818;28;20424;-66
2022/12/19 13:08:30;;;;;;;7.55;2.45;;;;;;;;;;5050973;28;20068;-66
2022/12/19 13:11:01;;;;;;;14.60;3.03;;;;;;;;;;5051261;28;20128;-66
2022/12/19 13:13:47;;;;;;;12.07;2.97;;;;;;;;;;5050996;28;20057;-66
2022/12/19 13:16:33;;;;;;;19.63;4.30;;;;;;;;;;5053193;28;20053;-66
2022/12/19 13:19:13;;;;;;;20.17;3.73;;;;;;;;;;5053033;28;20048;-66
2022/12/19 13:22:03;;;;;;;17.77;3.97;;;;;;;;;;5053764;28;20129;-66
2022/12/19 13:24:38;;;;;;;23.25;4.80;;;;;;;;;;5053940;28;20480;-66
2022/12/19 13:27:17;;;;;;;28.90;5.20;;;;;;;;;;5053942;28;20103;-66
2022/12/19 13:29:53;;;;;;;18.50;4.05;;;;;;;;;;5054611;28;20140;-66
2022/12/19 13:32:20;;;;;;;21.95;3.83;;;;;;;;;;5054521;28;20052;-66
2022/12/19 13:34:50;;;;;;;17.80;3.42;;;;;;;;;;5053990;28;20131;-66
2022/12/19 13:37:37;;;;;;;19.73;4.38;;;;;;;;;;5054212;28;20045;-66
2022/12/19 13:40:28;;;;;;;17.42;3.40;;;;;;;;;;5054484;28;20048;-66
2022/12/19 13:45:48;;;;;;;20.35;3.88;;;;;;;;;;5054176;28;20556;-67
2022/12/19 13:48:19;;;;;;;23.63;4.28;;;;;;;;;;5054117;28;20064;-66
2022/12/19 13:50:46;;;;;;;19.90;4.05;;;;;;;;;;5054078;28;20407;-66
2022/12/19 13:53:15;;;;;;;15.75;3.28;;;;;;;;;;5053993;28;20052;-67
2022/12/19 13:55:42;;;;;;;13.05;2.70;;;;;;;;;;5054158;28;20079;-67
2022/12/19 13:58:20;;;;;;;15.23;3.58;;;;;;;;;;5054063;28;20052;-66
2022/12/19 14:00:57;;;;;;;14.38;2.88;;;;;;;;;;5053973;28;20106;-66
2022/12/19 14:03:35;;;;;;;14.48;3.30;;;;;;;;;;5053961;28;20052;-66
2022/12/19 14:06:28;;;;;;;15.60;3.20;;;;;;;;;;5053668;28;20071;-66
2022/12/19 14:08:57;;;;;;;20.58;3.13;;;;;;;;;;5044674;28;20087;-66
2022/12/19 14:11:44;;;;;;;15.15;3.33;;;;;;;;;;5053872;28;20052;-66
2022/12/19 14:17:35;;;;;;;19.83;3.85;;;;;;;;;;5053323;28;20489;-66
2022/12/19 14:20:06;;;;;;;17.92;3.85;;;;;;;;;;5053598;28;20413;-66
2022/12/19 14:22:56;;;;;;;18.80;3.72;;;;;;;;;;5053310;28;20045;-66
2022/12/19 14:25:34;;;;;;;21.40;4.68;;;;;;;;;;5038134;28;20056;-66
2022/12/19 14:28:24;;;;;;;23.08;3.95;;;;;;;;;;5039934;28;20416;-66
2022/12/19 14:31:00;;;;;;;19.90;4.28;;;;;;;;;;5045414;28;20053;-68
2022/12/19 14:33:31;;;;;;;17.40;3.65;;;;;;;;;;5032231;28;20420;-67
2022/12/19 14:36:22;;;;;;;20.38;4.28;;;;;;;;;;5045150;28;20154;-67
2022/12/19 14:38:53;;;;;;;18.08;3.92;;;;;;;;;;5052691;28;20041;-66
2022/12/19 14:44:48;;;;;;;9.93;2.08;;;;;;;;;;5032197;28;20037;-67
2022/12/19 14:47:36;;;;;;;11.25;2.80;;;;;;;;;;5039675;28;20053;-67
2022/12/19 14:50:26;;;;;;;15.07;3.60;;;;;;;;;;5031756;28;20059;-66
2022/12/19 14:53:16;;;;;;;11.63;2.80;;;;;;;;;;5039897;28;20048;-67
2022/12/19 14:56:05;;;;;;;13.70;2.42;;;;;;;;;;5048416;28;20049;-65
2022/12/19 14:58:53;;;;;;;13.43;2.90;;;;;;;;;;5051370;28;20049;-66
2022/12/19 15:01:24;;;;;;;13.25;3.20;;;;;;;;;;5052457;28;20048;-67
2022/12/19 15:03:54;;;;;;;15.20;3.25;;;;;;;;;;5052000;28;20060;-66
2022/12/19 15:06:42;;;;;;;13.07;3.45;;;;;;;;;;5047760;28;20049;-67
2022/12/19 15:09:29;;;;;;;15.32;3.33;;;;;;;;;;5043860;28;20056;-67
2022/12/19 15:15:39;;;;;;;17.80;3.65;;;;;;;;;;5041004;28;20408;-67
2022/12/19 15:18:23;;;;;;;15.38;3.25;;;;;;;;;;5052026;28;20099;-66
2022/12/19 15:20:49;;;;;;;17.63;3.60;;;;;;;;;;5042313;28;20056;-66
2022/12/19 15:23:17;;;;;;;22.83;4.15;;;;;;;;;;5037630;28;20049;-66
2022/12/19 15:25:48;;;;;;;26.85;4.70;;;;;;;;;;5042663;28;20049;-66
2022/12/19 15:28:35;;;;;;;25.95;5.07;;;;;;;;;;5036905;28;20068;-66
2022/12/19 15:31:04;;;;;;;24.60;4.47;;;;;;;;;;5043302;28;20556;-66